Time;durP1;ratioP1;P1;durP2;ratioP2;P2;SDS_P1;SDS_P2;PMS_P1;PMS_P2;Temp;Humidity;BMP_temperature;BMP_pressure;BME280_temperature;BME280_humidity;BME280_pressure;Samples;Min_cycle;Max_cycle;Signal;HPM_P1;HPM_P2
2022/01/14 00:00:58;;;;;;;;;;;19.90;26.40;;;;;;492898;241;1174;-76
2022/01/14 00:02:59;;;;;;;;;;;19.80;26.40;;;;;;492899;241;1100;-76
2022/01/14 00:05:00;;;;;;;;;;;19.70;26.40;;;;;;492948;242;1105;-76
2022/01/14 00:07:02;;;;;;;;;;;19.80;26.40;;;;;;492900;241;1155;-76
2022/01/14 00:09:06;;;;;;;;;;;19.80;26.40;;;;;;492856;241;2183;-75
2022/01/14 00:11:14;;;;;;;;;;;19.90;26.30;;;;;;492678;242;1393;-76
2022/01/14 00:13:16;;;;;;;;;;;19.70;26.40;;;;;;492251;242;1405;-76
2022/01/14 00:15:24;;;;;;;;;;;19.80;26.40;;;;;;492395;242;1436;-76
2022/01/14 00:17:15;;;;;;;;;;;19.80;26.40;;;;;;492228;242;1330;-76
2022/01/14 00:19:16;;;;;;;;;;;19.60;26.30;;;;;;492852;241;985;-76
2022/01/14 00:21:17;;;;;;;;;;;19.70;26.40;;;;;;492810;242;1224;-76
2022/01/14 00:23:26;;;;;;;;;;;19.80;26.30;;;;;;492807;242;1190;-76
2022/01/14 00:32:21;;;;;;;;;;;19.80;26.20;;;;;;492815;242;1096;-76
2022/01/14 00:34:19;;;;;;;;;;;19.90;26.30;;;;;;492623;242;1394;-76
2022/01/14 00:36:20;;;;;;;;;;;19.90;26.30;;;;;;492775;241;1140;-76
2022/01/14 00:38:22;;;;;;;;;;;19.80;26.30;;;;;;492870;242;1224;-76
2022/01/14 00:40:23;;;;;;;;;;;19.80;26.20;;;;;;492861;241;1020;-76
2022/01/14 00:42:24;;;;;;;;;;;19.70;26.30;;;;;;492769;242;1112;-76
2022/01/14 00:44:26;;;;;;;;;;;19.70;26.30;;;;;;492912;241;967;-76
2022/01/14 00:46:27;;;;;;;;;;;19.70;26.40;;;;;;492841;242;1239;-76
2022/01/14 00:48:28;;;;;;;;;;;19.60;26.30;;;;;;492803;241;2182;-76
2022/01/14 00:50:30;;;;;;;;;;;19.60;26.30;;;;;;492832;242;1142;-76
2022/01/14 00:52:31;;;;;;;;;;;19.60;26.30;;;;;;492875;241;1204;-76
2022/01/14 00:54:32;;;;;;;;;;;19.70;26.30;;;;;;492814;242;962;-76
2022/01/14 00:56:34;;;;;;;;;;;19.70;26.20;;;;;;492813;242;1219;-76
2022/01/14 01:01:02;;;;;;;;;;;19.60;26.20;;;;;;483665;242;1145;-76
2022/01/14 01:03:03;;;;;;;;;;;19.70;26.20;;;;;;492829;242;1071;-76
2022/01/14 01:05:04;;;;;;;;;;;19.60;26.20;;;;;;492825;241;943;-75
2022/01/14 01:07:06;;;;;;;;;;;19.60;26.30;;;;;;492764;242;1097;-76
2022/01/14 01:09:10;;;;;;;;;;;19.50;26.30;;;;;;492874;242;2179;-76
2022/01/14 01:11:11;;;;;;;;;;;19.60;26.40;;;;;;492876;241;1431;-76
2022/01/14 01:13:18;;;;;;;;;;;19.60;26.20;;;;;;492900;241;1101;-76
2022/01/14 01:15:16;;;;;;;;;;;19.70;26.20;;;;;;492530;242;1436;-76
2022/01/14 01:17:16;;;;;;;;;;;19.70;26.20;;;;;;492633;242;1400;-76
2022/01/14 01:19:17;;;;;;;;;;;19.70;26.20;;;;;;492865;242;953;-76
2022/01/14 01:21:18;;;;;;;;;;;19.60;26.20;;;;;;492831;242;1273;-76
2022/01/14 01:23:20;;;;;;;;;;;19.50;26.30;;;;;;492782;241;1090;-76
2022/01/14 01:25:24;;;;;;;;;;;19.60;26.30;;;;;;492860;242;969;-76
2022/01/14 01:27:23;;;;;;;;;;;19.60;26.30;;;;;;492746;241;1314;-76
2022/01/14 01:29:45;;;;;;;;;;;19.50;26.20;;;;;;492895;241;2180;-76
2022/01/14 01:31:37;;;;;;;;;;;19.60;26.30;;;;;;491942;242;1408;-76
2022/01/14 01:33:37;;;;;;;;;;;19.60;26.20;;;;;;492740;241;1381;-76
2022/01/14 01:35:39;;;;;;;;;;;19.60;26.20;;;;;;492819;242;1093;-76
2022/01/14 01:37:40;;;;;;;;;;;19.70;26.10;;;;;;492798;242;1033;-76
2022/01/14 01:39:41;;;;;;;;;;;19.60;26.20;;;;;;492877;241;1185;-76
2022/01/14 01:41:43;;;;;;;;;;;19.60;26.20;;;;;;492844;241;1101;-76
2022/01/14 01:43:50;;;;;;;;;;;19.50;26.30;;;;;;492881;242;948;-76
2022/01/14 01:45:47;;;;;;;;;;;19.50;26.30;;;;;;492443;242;1389;-76
2022/01/14 01:47:50;;;;;;;;;;;19.60;26.30;;;;;;492697;242;1494;-76
2022/01/14 01:49:48;;;;;;;;;;;19.50;26.30;;;;;;492669;242;2176;-76
2022/01/14 01:51:49;;;;;;;;;;;19.50;26.30;;;;;;492781;242;1329;-76
2022/01/14 01:53:51;;;;;;;;;;;19.60;26.30;;;;;;492836;242;1119;-76
2022/01/14 01:55:52;;;;;;;;;;;19.60;26.30;;;;;;492817;241;1230;-76
2022/01/14 01:57:53;;;;;;;;;;;19.50;26.30;;;;;;492792;241;1128;-76
2022/01/14 01:59:55;;;;;;;;;;;19.60;26.30;;;;;;492847;242;966;-76
2022/01/14 02:01:56;;;;;;;;;;;19.60;26.20;;;;;;492823;241;1187;-76
2022/01/14 02:03:57;;;;;;;;;;;19.60;26.30;;;;;;492891;242;1555;-76
2022/01/14 02:05:59;;;;;;;;;;;19.50;26.30;;;;;;492913;241;1069;-76
2022/01/14 02:08:00;;;;;;;;;;;19.50;26.30;;;;;;492783;241;1055;-76
2022/01/14 02:10:02;;;;;;;;;;;19.50;26.30;;;;;;492905;242;2183;-76
2022/01/14 02:12:08;;;;;;;;;;;19.60;26.30;;;;;;492893;241;1210;-76
2022/01/14 02:14:13;;;;;;;;;;;19.60;26.30;;;;;;492516;242;1997;-76
2022/01/14 02:16:31;;;;;;;;;;;19.60;26.30;;;;;;492438;242;1402;-76
2022/01/14 02:18:46;;;;;;;;;;;19.60;26.20;;;;;;492056;242;1491;-76
2022/01/14 02:23:03;;;;;;;;;;;19.60;26.20;;;;;;492817;242;1078;-76
2022/01/14 02:25:07;;;;;;;;;;;19.60;26.30;;;;;;492696;242;1443;-76
2022/01/14 02:27:03;;;;;;;;;;;19.60;26.30;;;;;;492509;242;1405;-76
2022/01/14 02:29:05;;;;;;;;;;;19.60;26.30;;;;;;492858;242;2194;-76
2022/01/14 02:31:06;;;;;;;;;;;19.50;26.30;;;;;;492877;242;1205;-76
2022/01/14 02:33:07;;;;;;;;;;;19.50;26.30;;;;;;492858;242;1301;-76
2022/01/14 02:35:09;;;;;;;;;;;19.50;26.30;;;;;;492883;241;958;-76
2022/01/14 02:37:10;;;;;;;;;;;19.50;26.30;;;;;;492795;241;1204;-76
2022/01/14 02:39:11;;;;;;;;;;;19.50;26.30;;;;;;492889;241;1512;-76
2022/01/14 02:41:13;;;;;;;;;;;19.60;26.20;;;;;;492921;241;1184;-76
2022/01/14 02:43:16;;;;;;;;;;;19.60;26.20;;;;;;492931;241;1004;-76
2022/01/14 02:45:15;;;;;;;;;;;19.60;26.20;;;;;;492788;241;1455;-76
2022/01/14 02:47:17;;;;;;;;;;;19.60;26.30;;;;;;492756;241;1199;-76
2022/01/14 02:49:18;;;;;;;;;;;19.50;26.20;;;;;;492918;242;2176;-76
2022/01/14 02:51:20;;;;;;;;;;;19.50;26.30;;;;;;492811;241;1160;-76
2022/01/14 02:53:27;;;;;;;;;;;19.50;26.30;;;;;;492807;242;1094;-76
2022/01/14 02:55:30;;;;;;;;;;;19.50;26.30;;;;;;492796;241;1534;-76
2022/01/14 02:57:29;;;;;;;;;;;19.70;26.20;;;;;;492844;242;1419;-76
2022/01/14 02:59:31;;;;;;;;;;;19.70;26.10;;;;;;492887;242;1045;-76
2022/01/14 03:01:32;;;;;;;;;;;19.60;26.10;;;;;;492819;242;1150;-76
2022/01/14 03:03:33;;;;;;;;;;;19.60;26.20;;;;;;492844;241;957;-76
2022/01/14 03:05:35;;;;;;;;;;;19.60;26.20;;;;;;492884;241;1039;-75
2022/01/14 03:07:36;;;;;;;;;;;19.60;26.10;;;;;;492915;241;1072;-76
2022/01/14 03:09:37;;;;;;;;;;;19.60;26.20;;;;;;492872;242;2236;-76
2022/01/14 03:11:39;;;;;;;;;;;19.50;26.20;;;;;;492857;241;1183;-76
2022/01/14 03:13:40;;;;;;;;;;;19.50;26.20;;;;;;492864;242;1063;-76
2022/01/14 03:15:41;;;;;;;;;;;19.50;26.20;;;;;;492852;242;1047;-76
2022/01/14 03:17:43;;;;;;;;;;;19.60;26.10;;;;;;492931;241;1059;-76
2022/01/14 03:19:45;;;;;;;;;;;19.60;26.10;;;;;;492921;241;945;-76
2022/01/14 03:21:45;;;;;;;;;;;19.60;26.10;;;;;;492778;241;1400;-76
2022/01/14 03:23:48;;;;;;;;;;;19.70;26.10;;;;;;492848;242;1038;-76
2022/01/14 03:25:48;;;;;;;;;;;19.60;26.00;;;;;;492770;242;1505;-76
2022/01/14 03:27:49;;;;;;;;;;;19.60;26.00;;;;;;492911;242;1116;-76
2022/01/14 03:29:51;;;;;;;;;;;19.60;26.00;;;;;;492858;241;2194;-76
2022/01/14 03:31:52;;;;;;;;;;;19.50;26.10;;;;;;492859;242;1212;-76
2022/01/14 03:33:54;;;;;;;;;;;19.40;26.10;;;;;;492842;242;1069;-76
2022/01/14 03:35:55;;;;;;;;;;;19.40;26.20;;;;;;492851;242;1268;-76
2022/01/14 03:37:57;;;;;;;;;;;19.40;26.10;;;;;;492866;241;1097;-76
2022/01/14 03:39:58;;;;;;;;;;;19.40;26.20;;;;;;492858;241;1186;-76
2022/01/14 03:41:59;;;;;;;;;;;19.40;26.10;;;;;;492864;242;1206;-76
2022/01/14 03:44:01;;;;;;;;;;;19.40;26.10;;;;;;492892;241;958;-76
2022/01/14 03:46:02;;;;;;;;;;;19.40;26.10;;;;;;492909;242;1393;-76
2022/01/14 03:48:03;;;;;;;;;;;19.50;26.10;;;;;;492897;241;1083;-76
2022/01/14 03:50:05;;;;;;;;;;;19.40;26.10;;;;;;492853;242;2182;-76
2022/01/14 03:52:06;;;;;;;;;;;19.40;26.20;;;;;;492857;241;1170;-76
2022/01/14 03:54:07;;;;;;;;;;;19.30;26.20;;;;;;492891;241;1085;-76
2022/01/14 03:56:09;;;;;;;;;;;19.30;26.20;;;;;;492878;241;1291;-76
2022/01/14 03:58:10;;;;;;;;;;;19.30;26.20;;;;;;492836;242;1080;-76
2022/01/14 04:00:11;;;;;;;;;;;19.30;26.20;;;;;;492877;241;1085;-76
2022/01/14 04:02:13;;;;;;;;;;;19.40;26.10;;;;;;492749;241;1139;-76
2022/01/14 04:04:14;;;;;;;;;;;19.40;26.10;;;;;;492812;241;1205;-76
2022/01/14 04:06:15;;;;;;;;;;;19.40;26.10;;;;;;492786;242;1215;-76
2022/01/14 04:08:17;;;;;;;;;;;19.40;26.10;;;;;;492810;242;1115;-76
2022/01/14 04:10:18;;;;;;;;;;;19.40;26.10;;;;;;492847;242;2180;-76
2022/01/14 04:12:32;;;;;;;;;;;19.30;26.00;;;;;;492857;241;1107;-76
2022/01/14 04:16:41;;;;;;;;;;;19.30;26.10;;;;;;492675;242;1345;-76
2022/01/14 04:18:43;;;;;;;;;;;19.30;26.20;;;;;;492777;242;1180;-76
2022/01/14 04:20:44;;;;;;;;;;;19.30;26.20;;;;;;492839;242;1047;-76
2022/01/14 04:22:48;;;;;;;;;;;19.30;26.20;;;;;;492790;242;1083;-76
2022/01/14 04:24:47;;;;;;;;;;;19.40;26.10;;;;;;492701;242;1443;-76
2022/01/14 04:26:48;;;;;;;;;;;19.40;26.10;;;;;;492826;242;1145;-76
2022/01/14 04:28:49;;;;;;;;;;;19.40;26.10;;;;;;492838;242;1087;-76
2022/01/14 04:30:54;;;;;;;;;;;19.40;26.10;;;;;;492839;242;2195;-76
2022/01/14 04:32:53;;;;;;;;;;;19.30;26.00;;;;;;492779;241;1425;-76
2022/01/14 04:34:54;;;;;;;;;;;19.40;26.10;;;;;;492826;242;1060;-76
2022/01/14 04:36:56;;;;;;;;;;;19.40;26.10;;;;;;492823;242;1239;-76
2022/01/14 04:38:57;;;;;;;;;;;19.30;26.10;;;;;;492796;241;979;-76
2022/01/14 04:40:58;;;;;;;;;;;19.30;26.20;;;;;;492819;241;1187;-76
2022/01/14 04:43:00;;;;;;;;;;;19.30;26.10;;;;;;492872;242;1145;-75
2022/01/14 04:45:01;;;;;;;;;;;19.40;26.10;;;;;;492906;241;1036;-76
2022/01/14 04:47:15;;;;;;;;;;;19.40;26.10;;;;;;492818;241;1108;-76
2022/01/14 04:49:14;;;;;;;;;;;19.40;26.10;;;;;;492637;242;2247;-76
2022/01/14 04:51:18;;;;;;;;;;;19.40;26.10;;;;;;492782;242;1203;-76
2022/01/14 04:53:17;;;;;;;;;;;19.40;26.10;;;;;;492691;242;1559;-76
2022/01/14 04:55:18;;;;;;;;;;;19.40;26.00;;;;;;492828;242;1153;-76
2022/01/14 04:57:21;;;;;;;;;;;19.40;26.00;;;;;;492840;241;1045;-76
2022/01/14 04:59:22;;;;;;;;;;;19.40;26.00;;;;;;492882;242;1367;-76
2022/01/14 05:01:22;;;;;;;;;;;19.40;26.00;;;;;;492740;242;1547;-76
2022/01/14 05:03:24;;;;;;;;;;;19.40;26.00;;;;;;492796;242;1039;-76
2022/01/14 05:05:27;;;;;;;;;;;19.40;26.00;;;;;;492851;242;1170;-76
2022/01/14 05:07:27;;;;;;;;;;;19.40;26.00;;;;;;492629;241;1452;-76
2022/01/14 05:09:38;;;;;;;;;;;19.50;26.00;;;;;;492787;241;2189;-76
2022/01/14 05:11:39;;;;;;;;;;;19.40;26.00;;;;;;492278;242;1422;-76
2022/01/14 05:13:37;;;;;;;;;;;19.40;26.00;;;;;;492604;241;1332;-76
2022/01/14 05:15:38;;;;;;;;;;;19.40;26.10;;;;;;492836;242;952;-76
2022/01/14 05:17:39;;;;;;;;;;;19.30;26.10;;;;;;492808;241;1092;-76
2022/01/14 05:19:41;;;;;;;;;;;19.40;26.00;;;;;;492776;242;1010;-76
2022/01/14 05:21:42;;;;;;;;;;;19.40;26.00;;;;;;492718;242;1225;-76
2022/01/14 05:23:43;;;;;;;;;;;19.40;26.00;;;;;;492747;241;928;-76
2022/01/14 05:25:45;;;;;;;;;;;19.30;26.00;;;;;;492883;241;1141;-76
2022/01/14 05:27:46;;;;;;;;;;;19.30;26.00;;;;;;492715;242;1082;-76
2022/01/14 05:29:47;;;;;;;;;;;19.30;26.10;;;;;;492800;241;2117;-76
2022/01/14 05:31:49;;;;;;;;;;;19.30;26.10;;;;;;492755;242;1115;-76
2022/01/14 05:33:51;;;;;;;;;;;19.20;26.10;;;;;;492747;241;1022;-76
2022/01/14 05:35:51;;;;;;;;;;;19.20;26.20;;;;;;492526;242;1347;-76
2022/01/14 05:37:53;;;;;;;;;;;19.20;26.10;;;;;;492625;241;1043;-76
2022/01/14 05:39:56;;;;;;;;;;;19.30;26.10;;;;;;492646;242;1112;-76
2022/01/14 05:41:56;;;;;;;;;;;19.30;26.00;;;;;;492451;242;1499;-76
2022/01/14 05:43:57;;;;;;;;;;;19.40;26.00;;;;;;492700;242;1072;-76
2022/01/14 05:45:58;;;;;;;;;;;19.40;26.10;;;;;;492763;241;1274;-76
2022/01/14 05:47:59;;;;;;;;;;;19.30;26.00;;;;;;492837;241;991;-76
2022/01/14 05:50:01;;;;;;;;;;;19.30;26.10;;;;;;492868;241;2163;-76
2022/01/14 05:52:02;;;;;;;;;;;19.30;26.10;;;;;;492694;242;1192;-76
2022/01/14 05:54:03;;;;;;;;;;;19.20;26.10;;;;;;492736;242;1083;-76
2022/01/14 05:56:05;;;;;;;;;;;19.20;26.10;;;;;;492704;242;1235;-76
2022/01/14 05:58:06;;;;;;;;;;;19.30;26.10;;;;;;492751;241;1018;-75
2022/01/14 06:00:07;;;;;;;;;;;19.30;26.10;;;;;;492731;242;938;-76
2022/01/14 06:02:09;;;;;;;;;;;19.20;26.10;;;;;;492670;242;1099;-76
2022/01/14 06:04:10;;;;;;;;;;;19.20;26.10;;;;;;492668;241;969;-76
2022/01/14 06:06:11;;;;;;;;;;;19.20;26.10;;;;;;492602;242;1104;-76
2022/01/14 06:08:12;;;;;;;;;;;19.30;26.10;;;;;;492602;241;1078;-76
2022/01/14 06:10:14;;;;;;;;;;;19.30;26.10;;;;;;492704;242;2176;-76
2022/01/14 06:12:15;;;;;;;;;;;19.20;26.10;;;;;;492535;241;1168;-76
2022/01/14 06:14:16;;;;;;;;;;;19.20;26.10;;;;;;492684;242;977;-76
2022/01/14 06:16:18;;;;;;;;;;;19.20;26.10;;;;;;492582;241;1170;-76
2022/01/14 06:18:19;;;;;;;;;;;19.20;26.10;;;;;;492545;241;1072;-75
2022/01/14 06:20:20;;;;;;;;;;;19.30;26.10;;;;;;492554;241;1099;-75
2022/01/14 06:22:22;;;;;;;;;;;19.30;26.00;;;;;;492488;241;1128;-76
2022/01/14 06:24:23;;;;;;;;;;;19.40;26.00;;;;;;492535;241;1112;-76
2022/01/14 06:26:25;;;;;;;;;;;19.30;26.00;;;;;;492612;242;1143;-76
2022/01/14 06:28:26;;;;;;;;;;;19.30;26.00;;;;;;492534;241;1055;-76
2022/01/14 06:30:27;;;;;;;;;;;19.30;26.00;;;;;;492683;241;2260;-76
2022/01/14 06:32:29;;;;;;;;;;;19.30;26.00;;;;;;492637;241;1109;-76
2022/01/14 06:34:30;;;;;;;;;;;19.30;26.00;;;;;;492666;241;1094;-76
2022/01/14 06:36:31;;;;;;;;;;;19.30;26.00;;;;;;492678;242;1404;-75
2022/01/14 06:38:32;;;;;;;;;;;19.40;26.00;;;;;;492561;241;1097;-75
2022/01/14 06:40:34;;;;;;;;;;;19.30;25.90;;;;;;492626;241;1106;-76
2022/01/14 06:42:35;;;;;;;;;;;19.30;26.00;;;;;;492604;241;1174;-76
2022/01/14 06:44:36;;;;;;;;;;;19.30;26.00;;;;;;492629;241;1093;-76
2022/01/14 06:46:39;;;;;;;;;;;19.30;26.00;;;;;;492576;242;1097;-76
2022/01/14 06:48:39;;;;;;;;;;;19.30;26.00;;;;;;492529;242;1487;-75
2022/01/14 06:50:41;;;;;;;;;;;19.30;26.00;;;;;;492496;241;2124;-76
2022/01/14 06:52:42;;;;;;;;;;;19.30;26.00;;;;;;492421;241;1129;-76
2022/01/14 06:54:43;;;;;;;;;;;19.30;25.90;;;;;;492469;242;957;-76
2022/01/14 06:56:45;;;;;;;;;;;19.30;25.90;;;;;;492340;241;1652;-76
2022/01/14 06:58:46;;;;;;;;;;;19.30;25.90;;;;;;492470;242;964;-76
2022/01/14 07:00:47;;;;;;;;;;;19.30;25.90;;;;;;492404;241;1242;-75
2022/01/14 07:02:49;;;;;;;;;;;19.30;25.90;;;;;;492444;241;1137;-75
2022/01/14 07:04:50;;;;;;;;;;;19.30;25.90;;;;;;492443;241;1117;-76
2022/01/14 07:06:51;;;;;;;;;;;19.20;25.90;;;;;;492338;242;1202;-75
2022/01/14 07:08:53;;;;;;;;;;;19.10;26.10;;;;;;492366;241;1104;-76
2022/01/14 07:10:54;;;;;;;;;;;18.90;26.30;;;;;;492461;241;2128;-76
2022/01/14 07:12:55;;;;;;;;;;;18.80;26.50;;;;;;492399;242;1205;-76
2022/01/14 07:14:57;;;;;;;;;;;19.00;26.30;;;;;;492415;241;968;-76
2022/01/14 07:16:58;;;;;;;;;;;19.20;26.10;;;;;;492320;242;1224;-76
2022/01/14 07:19:00;;;;;;;;;;;19.30;26.00;;;;;;492283;241;968;-76
2022/01/14 07:21:01;;;;;;;;;;;19.30;25.90;;;;;;492249;241;1081;-76
2022/01/14 07:23:02;;;;;;;;;;;19.40;25.90;;;;;;492169;242;1246;-76
2022/01/14 07:25:04;;;;;;;;;;;19.50;25.80;;;;;;492133;242;1106;-76
2022/01/14 07:27:05;;;;;;;;;;;19.50;25.80;;;;;;492140;242;1122;-76
2022/01/14 07:29:06;;;;;;;;;;;19.50;25.70;;;;;;492178;242;1109;-76
2022/01/14 07:31:08;;;;;;;;;;;19.50;25.70;;;;;;492276;242;2123;-76
2022/01/14 07:33:09;;;;;;;;;;;19.50;25.70;;;;;;492379;241;1067;-76
2022/01/14 07:35:10;;;;;;;;;;;19.50;25.70;;;;;;492067;241;1028;-76
2022/01/14 07:37:11;;;;;;;;;;;19.50;25.70;;;;;;492306;242;1213;-76
2022/01/14 07:39:13;;;;;;;;;;;19.50;25.80;;;;;;492184;242;1034;-76
2022/01/14 07:41:14;;;;;;;;;;;19.60;25.70;;;;;;492238;241;998;-76
2022/01/14 07:43:16;;;;;;;;;;;19.60;25.70;;;;;;492299;242;1186;-76
2022/01/14 07:45:17;;;;;;;;;;;19.60;25.70;;;;;;492434;241;1173;-75
2022/01/14 07:47:18;;;;;;;;;;;19.60;25.70;;;;;;492208;242;1105;-75
2022/01/14 07:49:19;;;;;;;;;;;19.50;25.80;;;;;;492166;242;1074;-76
2022/01/14 07:51:21;;;;;;;;;;;19.60;25.80;;;;;;492004;241;2170;-75
2022/01/14 07:53:22;;;;;;;;;;;19.60;25.70;;;;;;491948;242;1032;-76
2022/01/14 07:55:23;;;;;;;;;;;19.60;25.80;;;;;;492208;242;1105;-76
2022/01/14 07:57:25;;;;;;;;;;;19.60;25.80;;;;;;492109;242;1149;-75
2022/01/14 07:59:26;;;;;;;;;;;19.60;25.80;;;;;;492127;242;977;-76
2022/01/14 08:01:28;;;;;;;;;;;19.60;25.80;;;;;;491923;241;1369;-76
2022/01/14 08:03:29;;;;;;;;;;;19.50;25.80;;;;;;491902;242;1193;-76
2022/01/14 08:05:30;;;;;;;;;;;19.50;25.80;;;;;;491682;241;1084;-76
2022/01/14 08:07:34;;;;;;;;;;;19.50;25.80;;;;;;491839;241;1188;-76
2022/01/14 08:09:33;;;;;;;;;;;19.60;25.80;;;;;;491823;242;1429;-76
2022/01/14 08:11:34;;;;;;;;;;;19.60;25.90;;;;;;492003;241;2172;-76
2022/01/14 08:13:36;;;;;;;;;;;19.60;25.90;;;;;;492076;241;1293;-76
2022/01/14 08:15:37;;;;;;;;;;;19.60;25.90;;;;;;491935;242;1002;-75
2022/01/14 08:17:38;;;;;;;;;;;19.60;25.90;;;;;;491964;241;1156;-75
2022/01/14 08:19:40;;;;;;;;;;;19.60;25.90;;;;;;491912;242;1106;-76
2022/01/14 08:21:41;;;;;;;;;;;19.60;25.90;;;;;;491998;241;1299;-75
2022/01/14 08:23:42;;;;;;;;;;;19.60;25.90;;;;;;492071;242;1090;-76
2022/01/14 08:25:44;;;;;;;;;;;19.60;26.00;;;;;;492045;242;1122;-75
2022/01/14 08:27:45;;;;;;;;;;;19.60;26.00;;;;;;492051;242;1282;-76
2022/01/14 08:29:47;;;;;;;;;;;19.60;26.00;;;;;;492114;241;1005;-76
2022/01/14 08:31:48;;;;;;;;;;;19.60;26.00;;;;;;492197;242;2166;-76
2022/01/14 08:33:49;;;;;;;;;;;19.60;26.00;;;;;;492035;241;1070;-76
2022/01/14 08:35:50;;;;;;;;;;;19.60;26.10;;;;;;492104;242;1195;-76
2022/01/14 08:37:52;;;;;;;;;;;19.60;26.10;;;;;;492052;242;1192;-76
2022/01/14 08:39:53;;;;;;;;;;;19.60;26.10;;;;;;492030;242;1086;-75
2022/01/14 08:41:55;;;;;;;;;;;19.50;26.20;;;;;;491862;242;1144;-75
2022/01/14 08:43:56;;;;;;;;;;;19.50;26.30;;;;;;491879;241;1156;-75
2022/01/14 08:46:01;;;;;;;;;;;19.50;26.30;;;;;;491945;242;1056;-75
2022/01/14 08:48:00;;;;;;;;;;;19.50;26.30;;;;;;491945;241;1360;-75
2022/01/14 08:50:01;;;;;;;;;;;19.50;26.30;;;;;;492029;242;1380;-76
2022/01/14 08:52:02;;;;;;;;;;;19.50;26.30;;;;;;492034;242;2186;-75
2022/01/14 08:54:03;;;;;;;;;;;19.50;26.40;;;;;;492119;241;966;-76
2022/01/14 08:56:05;;;;;;;;;;;19.40;26.40;;;;;;491987;242;1067;-76
2022/01/14 08:58:06;;;;;;;;;;;19.40;26.50;;;;;;492039;242;1055;-76
2022/01/14 09:00:07;;;;;;;;;;;19.50;26.60;;;;;;492028;242;1003;-76
2022/01/14 09:02:09;;;;;;;;;;;19.50;26.60;;;;;;492079;242;1508;-76
2022/01/14 09:04:10;;;;;;;;;;;19.50;26.60;;;;;;492052;242;1112;-76
2022/01/14 09:06:11;;;;;;;;;;;19.50;26.60;;;;;;492072;241;1580;-75
2022/01/14 09:08:13;;;;;;;;;;;19.50;26.60;;;;;;492034;242;1138;-75
2022/01/14 09:10:14;;;;;;;;;;;19.50;26.70;;;;;;492080;241;986;-76
2022/01/14 09:12:16;;;;;;;;;;;19.40;26.70;;;;;;491904;242;2203;-75
2022/01/14 09:14:18;;;;;;;;;;;19.50;26.70;;;;;;492018;242;1385;-76
2022/01/14 09:16:20;;;;;;;;;;;19.50;26.70;;;;;;491971;242;1392;-75
2022/01/14 09:18:19;;;;;;;;;;;19.50;26.70;;;;;;491940;242;1250;-76
2022/01/14 09:20:20;;;;;;;;;;;19.50;26.80;;;;;;491963;241;1316;-75
2022/01/14 09:22:22;;;;;;;;;;;19.50;26.90;;;;;;492063;242;1318;-75
2022/01/14 09:24:23;;;;;;;;;;;19.50;26.90;;;;;;492143;242;1289;-76
2022/01/14 09:26:24;;;;;;;;;;;19.50;26.90;;;;;;491978;242;1275;-75
2022/01/14 09:28:28;;;;;;;;;;;19.60;26.90;;;;;;492190;242;1223;-76
2022/01/14 09:30:27;;;;;;;;;;;19.50;26.90;;;;;;492067;242;1570;-75
2022/01/14 09:32:28;;;;;;;;;;;19.60;26.90;;;;;;492105;241;2187;-76
2022/01/14 09:34:30;;;;;;;;;;;19.60;26.90;;;;;;492082;242;972;-75
2022/01/14 09:36:31;;;;;;;;;;;19.70;27.00;;;;;;491901;242;1178;-76
2022/01/14 09:38:32;;;;;;;;;;;19.60;26.90;;;;;;492098;241;1029;-76
2022/01/14 09:40:34;;;;;;;;;;;19.60;27.00;;;;;;492076;241;1020;-75
2022/01/14 09:42:35;;;;;;;;;;;19.60;27.10;;;;;;492019;241;1202;-76
2022/01/14 09:44:36;;;;;;;;;;;19.60;27.10;;;;;;492078;241;1156;-76
2022/01/14 09:46:38;;;;;;;;;;;19.70;27.10;;;;;;491839;241;1133;-76
2022/01/14 09:48:39;;;;;;;;;;;19.80;27.10;;;;;;491908;242;1081;-76
2022/01/14 09:50:40;;;;;;;;;;;19.80;27.00;;;;;;492081;241;1049;-76
2022/01/14 09:52:42;;;;;;;;;;;19.90;27.00;;;;;;492071;242;2111;-76
2022/01/14 09:54:43;;;;;;;;;;;20.10;26.90;;;;;;492056;242;1179;-76
2022/01/14 09:56:45;;;;;;;;;;;20.30;26.80;;;;;;491866;241;1192;-76
2022/01/14 09:58:48;;;;;;;;;;;20.20;26.80;;;;;;491902;242;1184;-76
2022/01/14 10:00:48;;;;;;;;;;;20.30;26.90;;;;;;492144;242;1322;-76
2022/01/14 10:02:50;;;;;;;;;;;20.30;26.90;;;;;;492043;242;1167;-75
2022/01/14 10:04:51;;;;;;;;;;;20.40;26.90;;;;;;492080;242;1060;-76
2022/01/14 10:06:53;;;;;;;;;;;20.40;26.90;;;;;;492147;241;1101;-76
2022/01/14 10:08:54;;;;;;;;;;;20.50;26.80;;;;;;492121;242;1099;-76
2022/01/14 10:10:58;;;;;;;;;;;20.70;26.80;;;;;;492014;241;1144;-76
2022/01/14 10:12:57;;;;;;;;;;;20.80;26.70;;;;;;492156;242;1358;-76
2022/01/14 10:14:58;;;;;;;;;;;20.70;26.80;;;;;;492034;242;1199;-76
2022/01/14 10:16:59;;;;;;;;;;;20.70;26.80;;;;;;491998;241;1148;-76
2022/01/14 10:19:01;;;;;;;;;;;20.60;26.90;;;;;;492023;242;1007;-76
2022/01/14 10:21:02;;;;;;;;;;;20.70;26.90;;;;;;492185;242;1493;-76
2022/01/14 10:23:03;;;;;;;;;;;20.80;26.90;;;;;;492050;241;1085;-76
2022/01/14 10:25:05;;;;;;;;;;;20.80;26.90;;;;;;492050;242;1141;-76
2022/01/14 10:27:06;;;;;;;;;;;20.80;26.90;;;;;;492144;242;1164;-76
2022/01/14 10:29:07;;;;;;;;;;;20.80;26.90;;;;;;492105;242;1121;-76
2022/01/14 10:31:09;;;;;;;;;;;20.90;26.80;;;;;;491998;241;2179;-75
2022/01/14 10:33:11;;;;;;;;;;;20.90;26.80;;;;;;491987;242;1136;-76
2022/01/14 10:35:11;;;;;;;;;;;20.90;26.90;;;;;;491986;241;973;-76
2022/01/14 10:37:13;;;;;;;;;;;20.90;26.90;;;;;;492123;241;1221;-76
2022/01/14 10:39:14;;;;;;;;;;;21.00;26.90;;;;;;491213;241;1089;-76
2022/01/14 10:41:18;;;;;;;;;;;21.10;26.90;;;;;;491947;241;1206;-76
2022/01/14 10:43:17;;;;;;;;;;;21.10;26.80;;;;;;491475;242;1266;-76
2022/01/14 10:45:20;;;;;;;;;;;21.20;26.80;;;;;;491700;241;1174;-76
2022/01/14 10:47:21;;;;;;;;;;;21.30;26.80;;;;;;492156;242;1424;-76
2022/01/14 10:49:22;;;;;;;;;;;21.20;26.80;;;;;;492076;241;985;-76
2022/01/14 10:51:23;;;;;;;;;;;21.30;26.80;;;;;;492002;242;2183;-76
2022/01/14 10:53:25;;;;;;;;;;;21.30;26.80;;;;;;492023;241;1042;-76
2022/01/14 10:55:26;;;;;;;;;;;21.40;26.80;;;;;;491893;242;1086;-76
2022/01/14 10:57:27;;;;;;;;;;;21.30;26.90;;;;;;492067;242;1137;-76
2022/01/14 10:59:29;;;;;;;;;;;21.30;26.90;;;;;;492264;242;1075;-76
2022/01/14 11:01:31;;;;;;;;;;;21.40;26.90;;;;;;492117;241;1289;-76
2022/01/14 11:03:31;;;;;;;;;;;21.40;26.80;;;;;;492126;242;1392;-76
2022/01/14 11:05:34;;;;;;;;;;;21.40;26.80;;;;;;492021;242;1127;-75
2022/01/14 11:07:34;;;;;;;;;;;21.30;26.90;;;;;;491985;242;1445;-76
2022/01/14 11:09:35;;;;;;;;;;;21.10;27.00;;;;;;492028;242;1057;-76
2022/01/14 11:11:37;;;;;;;;;;;21.30;27.00;;;;;;492186;241;2117;-76
2022/01/14 11:13:38;;;;;;;;;;;21.30;27.00;;;;;;492092;242;1109;-76
2022/01/14 11:15:39;;;;;;;;;;;21.40;26.90;;;;;;491879;241;1116;-76
2022/01/14 11:17:41;;;;;;;;;;;21.40;26.80;;;;;;492430;242;1019;-76
2022/01/14 11:19:42;;;;;;;;;;;21.50;26.90;;;;;;492016;241;1056;-76
2022/01/14 11:24:03;;;;;;;;;;;21.50;26.90;;;;;;492131;241;1048;-76
2022/01/14 11:26:04;;;;;;;;;;;21.50;26.90;;;;;;491794;242;1425;-76
2022/01/14 11:28:05;;;;;;;;;;;21.50;26.90;;;;;;491807;241;1311;-76
2022/01/14 11:30:07;;;;;;;;;;;21.40;26.90;;;;;;492033;241;1140;-76
2022/01/14 11:32:08;;;;;;;;;;;21.50;27.00;;;;;;492037;242;2208;-76
2022/01/14 11:34:09;;;;;;;;;;;21.60;26.90;;;;;;492120;242;1076;-76
2022/01/14 11:36:11;;;;;;;;;;;21.60;26.90;;;;;;491988;242;1516;-76
2022/01/14 11:38:12;;;;;;;;;;;21.50;26.90;;;;;;492209;241;1179;-76
2022/01/14 11:40:15;;;;;;;;;;;21.60;26.90;;;;;;492072;242;980;-76
2022/01/14 11:42:16;;;;;;;;;;;21.60;26.90;;;;;;492190;241;1389;-76
2022/01/14 11:44:16;;;;;;;;;;;21.70;26.80;;;;;;492246;241;1373;-76
2022/01/14 11:46:17;;;;;;;;;;;21.70;26.80;;;;;;492261;242;1242;-76
2022/01/14 11:48:19;;;;;;;;;;;21.70;26.90;;;;;;492025;242;1375;-76
2022/01/14 11:50:21;;;;;;;;;;;21.80;26.80;;;;;;492002;242;1323;-76
2022/01/14 11:52:21;;;;;;;;;;;22.00;26.80;;;;;;492104;242;2157;-76
2022/01/14 11:54:23;;;;;;;;;;;22.10;26.60;;;;;;491986;241;1061;-76
2022/01/14 11:56:24;;;;;;;;;;;22.40;26.50;;;;;;492083;241;1136;-76
2022/01/14 11:58:26;;;;;;;;;;;22.40;26.30;;;;;;492171;241;999;-76
2022/01/14 12:00:27;;;;;;;;;;;22.50;26.30;;;;;;492028;241;1170;-76
2022/01/14 12:02:28;;;;;;;;;;;22.30;26.30;;;;;;492015;241;1213;-76
2022/01/14 12:04:30;;;;;;;;;;;22.20;26.50;;;;;;492192;242;1086;-76
2022/01/14 12:06:31;;;;;;;;;;;22.00;26.60;;;;;;492145;241;1303;-76
2022/01/14 12:08:32;;;;;;;;;;;21.90;26.80;;;;;;492067;242;1061;-76
2022/01/14 12:10:34;;;;;;;;;;;21.60;26.90;;;;;;492075;241;1215;-76
2022/01/14 12:12:35;;;;;;;;;;;21.30;27.10;;;;;;491939;241;2183;-76
2022/01/14 12:14:44;;;;;;;;;;;21.10;27.40;;;;;;491932;242;1207;-75